Terminal Aerodrome Forecast
Issued by NWS Wilmington, OH

Current Version | Previous Version | Text Only | Print | Product List | Glossary Off
Versions: 1 2 3 4 5 6 7 8 9 10 11 12 13 14 15 16 17 18 19 20 21 22

571
FTUS41 KILN 191735
TAFDAY
TAF
KDAY 191735Z 1918/2018 13004KT P6SM BKN200
     FM200100 11007KT P6SM VCSH OVC100
     FM200200 10006KT 3SM -RA OVC040
     FM200400 11009KT 3SM -RA OVC025
     FM200600 11008KT 3SM -RA BR OVC015
     FM200800 12007KT 2SM -RA BR OVC009
     FM201000 16005KT 2SM BR VCSH OVC005
     FM201400 21006KT 3SM BR OVC003
     FM201600 22007KT 3SM BR OVC005=

USA.gov is the U.S. government's official web portal to all federal, state and local government web resources and services.